createdAt,value
2017-09-26T00:00:53.001Z,33.27
2017-09-26T00:03:21.366Z,34.13
2017-09-26T00:05:49.751Z,36.93
2017-09-26T00:08:18.142Z,34.10
2017-09-26T00:10:46.522Z,36.60
2017-09-26T00:13:14.903Z,33.83
2017-09-26T00:15:43.306Z,35.23
2017-09-26T00:18:11.662Z,37.00
2017-09-26T00:20:40.030Z,34.83
2017-09-26T00:23:08.423Z,34.60
2017-09-26T00:25:36.790Z,35.20
2017-09-26T00:28:05.177Z,34.07
2017-09-26T00:30:33.546Z,35.97
2017-09-26T00:33:01.949Z,38.40
2017-09-26T00:35:30.321Z,37.27
2017-09-26T00:37:58.693Z,35.70
2017-09-26T00:40:27.085Z,34.93
2017-09-26T00:42:55.445Z,36.77
2017-09-26T00:45:23.826Z,38.23
2017-09-26T00:47:52.217Z,35.83
2017-09-26T00:50:20.613Z,32.43
2017-09-26T00:52:48.978Z,32.97
2017-09-26T00:55:17.345Z,33.87
2017-09-26T00:57:46.510Z,39.70
2017-09-26T01:00:14.894Z,35.07
2017-09-26T01:02:43.265Z,33.60
2017-09-26T01:08:26.341Z,35.47
2017-09-26T01:10:54.702Z,33.20
2017-09-26T01:13:23.062Z,33.30
2017-09-26T01:15:51.435Z,35.00
2017-09-26T01:18:19.808Z,29.97
2017-09-26T01:20:48.210Z,28.83
2017-09-26T01:23:16.598Z,33.57
2017-09-26T01:25:44.965Z,31.93
2017-09-26T01:28:13.333Z,43.77
2017-09-26T01:30:41.698Z,34.20
2017-09-26T01:33:10.854Z,35.80
2017-09-26T01:35:39.217Z,33.50
2017-09-26T01:38:07.611Z,34.60
2017-09-26T01:40:53.749Z,33.17
2017-09-26T01:43:22.889Z,32.47
2017-09-26T01:45:51.262Z,34.50
2017-09-26T01:48:19.654Z,33.90
2017-09-26T01:50:48.021Z,44.60
2017-09-26T01:53:16.397Z,36.20
2017-09-26T01:55:44.771Z,43.40
2017-09-26T01:58:13.165Z,46.33
2017-09-26T02:00:42.308Z,49.73
2017-09-26T02:03:11.446Z,47.30
2017-09-26T02:05:39.813Z,50.90
2017-09-26T02:08:08.178Z,50.33
2017-09-26T02:10:36.555Z,56.83
2017-09-26T02:13:04.922Z,57.37
2017-09-26T02:15:34.048Z,47.83
2017-09-26T02:18:02.434Z,52.57
2017-09-26T02:20:30.814Z,51.60
2017-09-26T02:22:59.193Z,50.37
2017-09-26T02:25:27.554Z,48.90
2017-09-26T02:27:55.946Z,46.57
2017-09-26T02:30:24.318Z,54.60
2017-09-26T02:32:52.684Z,46.47
2017-09-26T02:35:21.130Z,50.83
2017-09-26T02:37:49.493Z,55.47
2017-09-26T02:40:17.865Z,52.73
2017-09-26T02:42:46.242Z,51.47
2017-09-26T02:45:14.626Z,42.00
2017-09-26T02:47:43.073Z,47.70
2017-09-26T02:50:11.462Z,44.80
2017-09-26T02:52:39.830Z,49.10
2017-09-26T02:55:08.198Z,45.43
2017-09-26T02:57:36.578Z,50.40
2017-09-26T03:00:04.941Z,41.83
2017-09-26T03:02:34.107Z,46.80
2017-09-26T03:05:02.477Z,46.50
2017-09-26T03:07:30.855Z,52.27
2017-09-26T03:09:59.233Z,51.30
2017-09-26T03:12:27.598Z,45.13
2017-09-26T03:14:55.985Z,44.33
2017-09-26T03:17:24.357Z,55.00
2017-09-26T03:19:52.752Z,46.00
2017-09-26T03:22:21.126Z,56.10
2017-09-26T03:24:49.494Z,45.37
2017-09-26T03:27:17.881Z,51.60
2017-09-26T03:29:46.242Z,44.70
2017-09-26T03:32:14.609Z,47.13
2017-09-26T03:34:42.969Z,47.70
2017-09-26T03:37:11.365Z,50.23
2017-09-26T03:39:39.741Z,41.30
2017-09-26T03:42:08.104Z,43.83
2017-09-26T03:44:36.477Z,44.30
2017-09-26T03:47:05.609Z,42.40
2017-09-26T03:49:33.984Z,42.50
2017-09-26T03:52:02.349Z,42.97
2017-09-26T03:54:30.748Z,46.60
2017-09-26T03:56:59.130Z,47.00
2017-09-26T03:59:27.494Z,46.50
2017-09-26T04:01:55.881Z,47.77
2017-09-26T04:04:24.245Z,51.73
2017-09-26T04:06:52.610Z,41.23
2017-09-26T04:09:21.016Z,48.40
2017-09-26T04:11:49.421Z,53.73
2017-09-26T04:14:17.785Z,48.40
2017-09-26T04:16:46.161Z,50.77
2017-09-26T04:19:14.551Z,54.50
2017-09-26T04:21:42.922Z,50.50
2017-09-26T04:24:11.324Z,50.77
2017-09-26T04:26:39.685Z,50.27
2017-09-26T04:29:08.060Z,51.23
2017-09-26T04:31:36.444Z,53.37
2017-09-26T04:34:04.801Z,52.67
2017-09-26T04:36:33.173Z,51.90
2017-09-26T04:39:01.541Z,46.67
2017-09-26T04:41:29.903Z,47.07
2017-09-26T04:43:58.281Z,49.73
2017-09-26T04:46:27.515Z,48.13
2017-09-26T04:48:55.894Z,50.47
2017-09-26T04:51:24.269Z,51.70
2017-09-26T04:53:52.660Z,49.90
2017-09-26T04:56:21.046Z,56.20
2017-09-26T04:58:49.409Z,47.73
2017-09-26T05:01:17.777Z,47.90
2017-09-26T05:03:46.089Z,46.83
2017-09-26T05:06:14.430Z,48.20
2017-09-26T05:08:42.738Z,44.53
2017-09-26T05:11:11.041Z,47.13
2017-09-26T05:13:39.393Z,46.90
2017-09-26T05:16:07.701Z,48.23
2017-09-26T05:18:36.803Z,49.60
2017-09-26T05:21:05.940Z,50.17
2017-09-26T05:23:34.291Z,50.80
2017-09-26T05:26:03.361Z,46.97
2017-09-26T05:28:31.688Z,49.20
2017-09-26T05:31:00.015Z,48.83
2017-09-26T05:33:28.327Z,48.13
2017-09-26T05:35:56.665Z,48.67
2017-09-26T05:38:24.970Z,48.10
2017-09-26T05:40:54.047Z,47.10
2017-09-26T05:43:22.369Z,49.13
2017-09-26T05:45:50.679Z,54.67
2017-09-26T05:48:19.023Z,51.60
2017-09-26T05:50:47.340Z,48.00
2017-09-26T05:53:15.653Z,52.83
2017-09-26T05:55:44.735Z,48.67
2017-09-26T05:58:13.813Z,51.07
2017-09-26T06:00:42.164Z,56.93
2017-09-26T06:03:10.469Z,50.47
2017-09-26T06:05:38.781Z,49.90
2017-09-26T06:08:07.100Z,52.33
2017-09-26T06:10:35.409Z,42.10
2017-09-26T06:13:03.732Z,45.10
2017-09-26T06:15:32.041Z,47.90
2017-09-26T06:18:00.377Z,50.30
2017-09-26T06:20:28.689Z,58.33
2017-09-26T06:22:57.002Z,52.33
2017-09-26T06:25:26.093Z,49.70
2017-09-26T06:27:55.178Z,54.57
2017-09-26T06:30:23.514Z,45.90
2017-09-26T06:32:51.826Z,48.03
2017-09-26T06:35:20.174Z,49.93
2017-09-26T06:37:48.498Z,45.80
2017-09-26T06:40:17.592Z,56.17
2017-09-26T06:42:46.697Z,53.10
2017-09-26T06:45:15.772Z,53.83
2017-09-26T06:47:44.086Z,53.00
2017-09-26T06:50:12.406Z,54.60
2017-09-26T06:52:40.714Z,54.83
2017-09-26T06:55:09.058Z,60.77
2017-09-26T06:57:37.358Z,52.47
2017-09-26T07:00:05.659Z,49.93
2017-09-26T07:02:34.749Z,53.73
2017-09-26T07:05:03.825Z,45.00
2017-09-26T07:07:32.165Z,51.43
2017-09-26T07:10:00.470Z,52.47
2017-09-26T07:12:28.777Z,54.77
2017-09-26T07:14:57.858Z,52.07
2017-09-26T07:17:26.182Z,52.40
2017-09-26T07:19:54.526Z,54.03
2017-09-26T07:22:23.602Z,66.37
2017-09-26T07:24:51.918Z,54.57
2017-09-26T07:27:20.997Z,55.50
2017-09-26T07:29:50.070Z,59.40
2017-09-26T07:32:18.434Z,49.53
2017-09-26T07:34:46.741Z,57.93
2017-09-26T07:37:15.888Z,56.73
2017-09-26T07:39:44.198Z,61.10
2017-09-26T07:42:12.509Z,46.37
2017-09-26T07:44:41.620Z,54.33
2017-09-26T07:47:09.925Z,44.13
2017-09-26T07:49:38.225Z,45.10
2017-09-26T07:52:06.556Z,46.47
2017-09-26T07:54:34.865Z,46.40
2017-09-26T07:57:03.474Z,48.50
2017-09-26T07:59:31.788Z,45.70
2017-09-26T08:02:00.315Z,41.60
2017-09-26T08:04:28.769Z,38.27
2017-09-26T08:06:57.277Z,42.93
2017-09-26T08:09:25.822Z,47.97
2017-09-26T08:11:54.125Z,38.10
2017-09-26T08:14:22.434Z,38.43
2017-09-26T08:16:50.755Z,38.47
2017-09-26T08:19:19.057Z,39.57
2017-09-26T08:21:47.405Z,44.20
2017-09-26T08:24:15.710Z,45.27
2017-09-26T08:26:44.018Z,42.10
2017-09-26T08:29:12.345Z,41.90
2017-09-26T08:31:40.646Z,42.90
2017-09-26T08:34:08.985Z,34.80
2017-09-26T08:36:37.307Z,37.10
2017-09-26T08:39:06.394Z,41.10
2017-09-26T08:41:34.713Z,42.13
2017-09-26T08:44:03.786Z,38.10
2017-09-26T08:46:32.126Z,37.63
2017-09-26T08:49:00.430Z,44.10
2017-09-26T08:51:28.748Z,42.67
2017-09-26T08:53:57.838Z,42.83
2017-09-26T08:56:26.913Z,40.93
2017-09-26T08:58:55.250Z,40.70
2017-09-26T09:01:23.558Z,41.73
2017-09-26T09:03:51.878Z,35.70
2017-09-26T09:06:20.965Z,38.50
2017-09-26T09:08:50.034Z,36.57
2017-09-26T09:11:18.370Z,31.07
2017-09-26T09:13:46.670Z,33.53
2017-09-26T09:16:14.977Z,32.67
2017-09-26T09:18:43.298Z,34.83
2017-09-26T09:21:11.605Z,35.03
2017-09-26T09:23:39.945Z,30.90
2017-09-26T09:26:08.246Z,28.17
2017-09-26T09:28:36.566Z,28.90
2017-09-26T09:31:04.882Z,28.87
2017-09-26T09:33:33.181Z,30.90
2017-09-26T09:36:01.533Z,30.10
2017-09-26T09:38:29.837Z,29.20
2017-09-26T09:40:58.148Z,30.73
2017-09-26T09:43:26.466Z,29.07
2017-09-26T09:45:54.788Z,32.23
2017-09-26T09:48:23.133Z,34.77
2017-09-26T09:50:51.441Z,27.50
2017-09-26T09:53:19.753Z,28.80
2017-09-26T09:55:48.833Z,35.13
2017-09-26T09:58:17.142Z,31.83
2017-09-26T10:00:45.487Z,37.73
2017-09-26T10:03:13.797Z,29.90
2017-09-26T10:05:42.098Z,26.20
2017-09-26T10:08:10.442Z,29.53
2017-09-26T10:10:38.753Z,28.93
2017-09-26T10:13:07.099Z,31.80
2017-09-26T10:15:35.405Z,28.60
2017-09-26T10:18:03.721Z,25.50
2017-09-26T10:20:32.037Z,24.00
2017-09-26T10:23:00.366Z,27.13
2017-09-26T10:25:28.702Z,31.87
2017-09-26T10:27:57.005Z,25.73
2017-09-26T10:30:25.324Z,26.60
2017-09-26T10:32:54.405Z,24.63
2017-09-26T10:35:22.717Z,24.73
2017-09-26T10:37:51.113Z,24.63
2017-09-26T10:40:19.421Z,22.90
2017-09-26T10:42:47.730Z,22.70
2017-09-26T10:45:16.810Z,23.57
2017-09-26T10:47:45.115Z,23.10
2017-09-26T10:50:13.457Z,20.70
2017-09-26T10:52:41.763Z,23.13
2017-09-26T10:55:10.834Z,21.73
2017-09-26T10:57:39.154Z,25.30
2017-09-26T11:00:07.471Z,30.70
2017-09-26T11:02:35.813Z,20.57
2017-09-26T11:05:04.122Z,19.13
2017-09-26T11:07:32.434Z,20.00
2017-09-26T11:10:00.765Z,20.50
2017-09-26T11:12:29.087Z,19.53
2017-09-26T11:14:57.438Z,21.73
2017-09-26T11:17:25.754Z,18.33
2017-09-26T11:19:54.826Z,19.43
2017-09-26T11:22:23.142Z,17.50
2017-09-26T11:24:51.451Z,18.63
2017-09-26T11:27:19.790Z,18.23
2017-09-26T11:29:48.875Z,16.70
2017-09-26T11:32:17.961Z,17.27
2017-09-26T11:34:46.282Z,18.57
2017-09-26T11:37:14.590Z,17.17
2017-09-26T11:39:42.930Z,18.80
2017-09-26T11:42:11.234Z,16.47
2017-09-26T11:44:40.309Z,16.27
2017-09-26T11:47:08.635Z,15.57
2017-09-26T11:49:36.945Z,17.67
2017-09-26T11:52:05.279Z,15.30
2017-09-26T11:54:33.589Z,19.17
2017-09-26T11:57:02.675Z,16.10
2017-09-26T11:59:31.759Z,22.27
2017-09-26T12:02:00.067Z,17.00
2017-09-26T12:04:28.413Z,14.97
2017-09-26T12:06:56.723Z,13.30
2017-09-26T12:09:25.797Z,14.27
2017-09-26T12:11:54.883Z,18.10
2017-09-26T12:14:23.199Z,14.70
2017-09-26T12:16:51.513Z,18.73
2017-09-26T12:19:20.585Z,15.70
2017-09-26T12:21:48.925Z,15.27
2017-09-26T12:24:18.002Z,21.30
2017-09-26T12:26:46.306Z,16.47
2017-09-26T12:29:15.402Z,18.87
2017-09-26T12:31:44.486Z,17.70
2017-09-26T12:34:13.593Z,20.90
2017-09-26T12:36:42.671Z,16.40
2017-09-26T12:39:10.978Z,14.93
2017-09-26T12:41:39.299Z,15.33
2017-09-26T12:44:07.613Z,18.73
2017-09-26T12:46:36.717Z,15.23
2017-09-26T12:49:05.786Z,13.23
2017-09-26T12:51:34.095Z,14.00
2017-09-26T12:54:02.410Z,13.13
2017-09-26T12:56:30.720Z,19.40
2017-09-26T12:58:59.600Z,14.73
2017-09-26T13:01:27.909Z,13.97
2017-09-26T13:03:56.987Z,13.23
2017-09-26T13:06:25.302Z,14.40
2017-09-26T13:08:53.609Z,19.77
2017-09-26T13:11:21.950Z,14.37
2017-09-26T13:13:50.278Z,16.00
2017-09-26T13:16:18.589Z,15.80
2017-09-26T13:18:47.681Z,16.37
2017-09-26T13:21:16.765Z,13.70
2017-09-26T13:23:45.115Z,13.50
2017-09-26T13:26:13.421Z,14.80
2017-09-26T13:28:41.721Z,11.90
2017-09-26T13:31:10.045Z,12.70
2017-09-26T13:33:38.361Z,13.97
2017-09-26T13:36:07.463Z,12.53
2017-09-26T13:38:36.531Z,14.80
2017-09-26T13:41:04.837Z,15.10
2017-09-26T13:43:33.926Z,14.07
2017-09-26T13:46:03.003Z,15.60
2017-09-26T13:48:31.350Z,13.57
2017-09-26T13:50:59.657Z,14.37
2017-09-26T13:53:27.965Z,14.30
2017-09-26T13:55:57.052Z,12.00
2017-09-26T13:58:26.122Z,9.30
2017-09-26T14:00:54.458Z,5.97
2017-09-26T14:03:22.761Z,7.10
2017-09-26T14:05:51.062Z,8.43
2017-09-26T14:08:20.150Z,14.30
2017-09-26T14:10:48.458Z,11.80
2017-09-26T14:13:16.799Z,14.97
2017-09-26T14:15:45.119Z,14.00
2017-09-26T14:18:13.430Z,14.00
2017-09-26T14:20:41.753Z,15.20
2017-09-26T14:23:10.829Z,14.33
2017-09-26T14:25:39.183Z,13.63
2017-09-26T14:28:07.495Z,13.30
2017-09-26T14:30:35.801Z,13.53
2017-09-26T14:33:04.123Z,15.27
2017-09-26T14:35:32.434Z,15.63
2017-09-26T14:38:01.546Z,14.43
2017-09-26T14:40:30.618Z,14.87
2017-09-26T14:42:58.926Z,13.90
2017-09-26T14:45:27.245Z,14.30
2017-09-26T14:47:55.567Z,13.20
2017-09-26T14:50:24.670Z,14.30
2017-09-26T14:52:53.006Z,17.43
2017-09-26T14:55:21.313Z,13.60
2017-09-26T14:57:50.399Z,19.30
2017-09-26T15:00:18.714Z,14.57
2017-09-26T15:02:47.073Z,19.57
2017-09-26T15:05:15.434Z,14.10
2017-09-26T15:07:43.742Z,15.97
2017-09-26T15:10:12.095Z,15.07
2017-09-26T15:12:40.374Z,18.53
2017-09-26T15:15:09.454Z,18.27
2017-09-26T15:17:37.764Z,17.03
2017-09-26T15:20:06.095Z,17.30
2017-09-26T15:22:34.401Z,17.10
2017-09-26T15:25:03.485Z,17.10
2017-09-26T15:27:31.800Z,20.30
2017-09-26T15:30:00.141Z,19.27
2017-09-26T15:32:28.450Z,19.70
2017-09-26T15:34:56.768Z,21.90
2017-09-26T15:37:25.081Z,19.63
2017-09-26T15:39:54.150Z,23.07
2017-09-26T15:42:22.469Z,23.53
2017-09-26T15:44:50.811Z,21.27
2017-09-26T15:47:19.133Z,20.83
2017-09-26T15:49:47.448Z,20.40
2017-09-26T15:52:15.766Z,22.50
2017-09-26T15:54:44.838Z,19.73
2017-09-26T15:57:13.174Z,18.17
2017-09-26T15:59:41.482Z,17.70
2017-09-26T16:02:09.795Z,16.50
2017-09-26T16:04:38.882Z,17.07
2017-09-26T16:07:07.970Z,18.50
2017-09-26T16:09:36.293Z,19.30
2017-09-26T16:12:04.598Z,18.53
2017-09-26T16:14:32.915Z,19.13
2017-09-26T16:17:01.997Z,19.00
2017-09-26T16:19:30.351Z,18.80
2017-09-26T16:21:58.678Z,20.13
2017-09-26T16:24:27.029Z,21.00
2017-09-26T16:26:55.385Z,17.60
2017-09-26T16:29:23.707Z,18.70
2017-09-26T16:31:52.835Z,16.20
2017-09-26T16:34:21.197Z,17.87
2017-09-26T16:36:49.557Z,20.17
2017-09-26T16:39:18.633Z,19.07
2017-09-26T16:41:46.974Z,18.53
2017-09-26T16:44:15.281Z,17.80
2017-09-26T16:46:43.585Z,19.60
2017-09-26T16:49:12.670Z,20.13
2017-09-26T16:51:41.746Z,23.43
2017-09-26T16:54:10.081Z,20.00
2017-09-26T16:56:38.464Z,20.17
2017-09-26T16:59:06.773Z,20.30
2017-09-26T17:01:35.090Z,27.33
2017-09-26T17:04:04.195Z,19.57
2017-09-26T17:06:32.506Z,25.53
2017-09-26T17:09:01.586Z,26.13
2017-09-26T17:11:29.902Z,20.37
2017-09-26T17:13:58.214Z,21.97
2017-09-26T17:16:26.534Z,19.93
2017-09-26T17:18:54.845Z,20.37
2017-09-26T17:21:23.169Z,19.13
2017-09-26T17:23:51.479Z,20.23
2017-09-26T17:26:19.795Z,22.80
2017-09-26T17:28:48.134Z,23.30
2017-09-26T17:31:16.492Z,22.73
2017-09-26T17:33:44.831Z,28.37
2017-09-26T17:36:13.908Z,26.23
2017-09-26T17:38:42.994Z,33.10
2017-09-26T17:41:11.314Z,28.73
2017-09-26T17:43:39.647Z,39.47
2017-09-26T17:46:07.958Z,33.80
2017-09-26T17:48:37.042Z,40.53
2017-09-26T17:51:06.118Z,33.07
2017-09-26T17:53:34.445Z,40.10
2017-09-26T17:56:02.755Z,41.50
2017-09-26T17:58:31.061Z,39.07
2017-09-26T18:01:00.146Z,38.47
2017-09-26T18:03:28.454Z,45.10
2017-09-26T18:05:56.797Z,36.57
2017-09-26T18:08:25.110Z,42.63
2017-09-26T18:10:53.433Z,38.80
2017-09-26T18:13:21.753Z,40.60
2017-09-26T18:15:50.870Z,42.77
2017-09-26T18:18:19.189Z,37.63
2017-09-26T18:20:47.549Z,42.17
2017-09-26T18:23:15.858Z,43.67
2017-09-26T18:25:44.179Z,42.80
2017-09-26T18:28:12.545Z,47.80
2017-09-26T18:30:41.618Z,43.40
2017-09-26T18:33:10.002Z,41.07
2017-09-26T18:35:38.377Z,46.83
2017-09-26T18:38:07.553Z,44.50
2017-09-26T18:40:35.912Z,40.97
2017-09-26T18:43:04.269Z,42.63
2017-09-26T18:45:32.643Z,44.20
2017-09-26T18:48:00.953Z,42.40
2017-09-26T18:50:29.334Z,47.30
2017-09-26T18:52:57.697Z,43.40
2017-09-26T18:55:26.075Z,44.60
2017-09-26T18:57:54.378Z,45.73
2017-09-26T19:00:22.714Z,44.70
2017-09-26T19:02:51.034Z,49.07
2017-09-26T19:05:19.432Z,57.77
2017-09-26T19:07:47.794Z,54.73
2017-09-26T19:10:16.168Z,47.80
2017-09-26T19:12:44.532Z,53.00
2017-09-26T19:15:12.900Z,47.63
2017-09-26T19:17:41.277Z,57.43
2017-09-26T19:20:09.640Z,54.77
2017-09-26T19:22:38.017Z,53.43
2017-09-26T19:25:06.382Z,52.70
2017-09-26T19:27:35.522Z,61.17
2017-09-26T19:30:03.890Z,61.17
2017-09-26T19:32:32.294Z,58.87
2017-09-26T19:35:00.657Z,56.33
2017-09-26T19:37:29.017Z,60.03
2017-09-26T19:39:57.384Z,55.17
2017-09-26T19:42:25.747Z,58.87
2017-09-26T19:44:54.888Z,56.53
2017-09-26T19:47:24.012Z,63.07
2017-09-26T19:49:52.368Z,59.80
2017-09-26T19:52:20.726Z,66.50
2017-09-26T19:54:49.102Z,56.63
2017-09-26T19:57:17.457Z,63.20
2017-09-26T19:59:46.615Z,56.93
2017-09-26T20:02:14.931Z,57.77
2017-09-26T20:04:43.315Z,57.70
2017-09-26T20:07:11.634Z,58.97
2017-09-26T20:09:40.001Z,65.13
2017-09-26T20:12:08.409Z,58.13
2017-09-26T20:14:36.774Z,57.00
2017-09-26T20:17:05.859Z,61.07
2017-09-26T20:19:34.213Z,60.33
2017-09-26T20:22:02.611Z,59.43
2017-09-26T20:24:30.918Z,64.80
2017-09-26T20:26:59.276Z,63.70
2017-09-26T20:29:28.421Z,64.93
2017-09-26T20:31:56.733Z,63.37
2017-09-26T20:34:25.053Z,59.73
2017-09-26T20:36:53.464Z,65.30
2017-09-26T20:39:22.552Z,60.57
2017-09-26T20:41:51.630Z,62.07
2017-09-26T20:44:19.942Z,58.07
2017-09-26T20:46:48.250Z,58.00
2017-09-26T20:49:16.600Z,62.20
2017-09-26T20:51:44.906Z,62.13
2017-09-26T20:54:13.219Z,59.93
2017-09-26T20:56:41.539Z,58.30
2017-09-26T20:59:09.920Z,63.87
2017-09-26T21:01:38.242Z,62.70
2017-09-26T21:04:06.564Z,57.80
2017-09-26T21:06:34.883Z,54.87
2017-09-26T21:09:03.198Z,69.20
2017-09-26T21:11:32.302Z,65.07
2017-09-26T21:14:01.371Z,65.67
2017-09-26T21:16:29.677Z,62.10
2017-09-26T21:18:58.002Z,66.70
2017-09-26T21:21:27.091Z,67.50
2017-09-26T21:23:55.427Z,66.00
2017-09-26T21:26:23.754Z,68.63
2017-09-26T21:28:52.080Z,62.10
2017-09-26T21:31:20.391Z,66.50
2017-09-26T21:33:48.718Z,76.67
2017-09-26T21:36:17.812Z,70.57
2017-09-26T21:38:46.137Z,64.10
2017-09-26T21:41:14.446Z,64.73
2017-09-26T21:43:42.784Z,62.20
2017-09-26T21:46:11.089Z,66.60
2017-09-26T21:48:39.415Z,72.33
2017-09-26T21:51:08.502Z,66.63
2017-09-26T21:53:37.575Z,74.23
2017-09-26T21:56:05.900Z,67.47
2017-09-26T21:58:34.206Z,69.73
2017-09-26T22:01:02.539Z,64.57
2017-09-26T22:03:30.847Z,69.93
2017-09-26T22:05:59.193Z,64.37
2017-09-26T22:08:28.273Z,71.00
2017-09-26T22:10:57.359Z,64.30
2017-09-26T22:13:25.682Z,68.07
2017-09-26T22:15:53.986Z,71.47
2017-09-26T22:18:22.312Z,62.60
2017-09-26T22:20:51.391Z,72.20
2017-09-26T22:23:20.478Z,68.67
2017-09-26T22:25:48.781Z,78.50
2017-09-26T22:28:17.886Z,68.43
2017-09-26T22:30:46.197Z,68.33
2017-09-26T22:33:14.561Z,66.63
2017-09-26T22:35:42.873Z,71.00
2017-09-26T22:38:11.189Z,74.10
2017-09-26T22:40:40.266Z,77.20
2017-09-26T22:43:08.574Z,71.00
2017-09-26T22:45:36.898Z,68.93
2017-09-26T22:48:05.208Z,75.07
2017-09-26T22:50:34.325Z,69.33
2017-09-26T22:53:02.646Z,69.37
2017-09-26T22:55:30.951Z,80.30
2017-09-26T22:58:00.042Z,73.97
2017-09-26T23:00:28.351Z,84.17
2017-09-26T23:02:56.673Z,75.50
2017-09-26T23:05:24.985Z,75.37
2017-09-26T23:07:54.066Z,70.30
2017-09-26T23:10:22.381Z,73.00
2017-09-26T23:12:50.732Z,72.63
2017-09-26T23:15:19.868Z,86.73
2017-09-26T23:17:48.184Z,86.07
2017-09-26T23:20:16.501Z,81.73
2017-09-26T23:22:44.805Z,66.90
2017-09-26T23:25:13.142Z,79.30
2017-09-26T23:27:42.218Z,79.47
2017-09-26T23:30:10.538Z,71.63
2017-09-26T23:32:38.838Z,76.00
2017-09-26T23:35:07.157Z,75.80
2017-09-26T23:37:35.470Z,71.20
2017-09-26T23:40:03.841Z,75.40
2017-09-26T23:42:32.162Z,73.93
2017-09-26T23:45:00.474Z,71.63
2017-09-26T23:47:29.559Z,74.27
2017-09-26T23:49:57.861Z,70.00
2017-09-26T23:52:26.945Z,74.10
2017-09-26T23:54:56.018Z,77.00
2017-09-26T23:57:24.343Z,79.07
2017-09-26T23:59:52.656Z,73.53
